createdAt,value
2022-11-28T00:00:05.651Z,98165.94
2022-11-28T00:02:35.179Z,98158.31
2022-11-28T00:05:03.830Z,98146.47
2022-11-28T00:07:33.111Z,98165.19
2022-11-28T00:10:02.741Z,98155.84
2022-11-28T00:12:31.855Z,98160.06
2022-11-28T00:15:02.305Z,98155.03
2022-11-28T00:17:30.633Z,98175.41
2022-11-28T00:19:59.866Z,98158.44
2022-11-28T00:22:29.683Z,98159.31
2022-11-28T00:24:58.685Z,98142.50
2022-11-28T00:27:27.978Z,98141.66
2022-11-28T00:29:57.488Z,98135.69
2022-11-28T00:32:28.628Z,98138.19
2022-11-28T00:34:57.684Z,98132.25
2022-11-28T00:37:26.253Z,98134.84
2022-11-28T00:39:54.740Z,98124.59
2022-11-28T00:42:29.256Z,98121.97
2022-11-28T00:44:58.270Z,98117.72
2022-11-28T00:47:28.382Z,98115.13
2022-11-28T00:49:56.842Z,98122.78
2022-11-28T00:52:25.320Z,98114.31
2022-11-28T00:54:54.132Z,98101.63
2022-11-28T00:57:22.473Z,98099.94
2022-11-28T00:59:53.248Z,98105.91
2022-11-28T01:02:22.138Z,98104.22
2022-11-28T01:04:52.604Z,98106.75
2022-11-28T01:07:20.894Z,98103.38
2022-11-28T01:09:49.427Z,98086.44
2022-11-28T01:12:17.692Z,98092.41
2022-11-28T01:14:46.487Z,98089.84
2022-11-28T01:17:14.698Z,98090.69
2022-11-28T01:19:43.252Z,98084.72
2022-11-28T01:22:13.367Z,98090.66
2022-11-28T01:24:44.420Z,98082.16
2022-11-28T01:27:14.062Z,98085.66
2022-11-28T01:29:42.770Z,98078.94
2022-11-28T01:32:11.241Z,98078.13
2022-11-28T01:34:40.123Z,98067.91
2022-11-28T01:37:09.226Z,98056.06
2022-11-28T01:39:40.167Z,98063.66
2022-11-28T01:42:08.734Z,98051.84
2022-11-28T01:45:13.572Z,98046.75
2022-11-28T01:47:42.852Z,98046.72
2022-11-28T01:50:13.217Z,98036.56
2022-11-28T01:52:45.652Z,98038.28
2022-11-28T01:55:19.413Z,98042.53
2022-11-28T01:57:48.389Z,98033.22
2022-11-28T02:00:20.591Z,98039.97
2022-11-28T02:02:51.694Z,98015.38
2022-11-28T02:05:23.332Z,98028.16
2022-11-28T02:07:53.411Z,98023.06
2022-11-28T02:10:30.160Z,98023.06
2022-11-28T02:13:15.348Z,98012.06
2022-11-28T02:16:02.084Z,98025.59
2022-11-28T02:18:50.187Z,98036.63
2022-11-28T02:21:31.024Z,98018.84
2022-11-28T02:24:35.115Z,98023.94
2022-11-28T02:27:30.850Z,98018.09
2022-11-28T02:30:12.721Z,98015.56
2022-11-28T02:33:05.978Z,98021.47
2022-11-28T02:35:43.566Z,98007.09
2022-11-28T02:38:23.714Z,98005.41
2022-11-28T02:41:01.321Z,98006.22
2022-11-28T02:43:37.785Z,97993.53
2022-11-28T02:46:15.208Z,97991.88
2022-11-28T02:48:51.838Z,97980.03
2022-11-28T02:51:26.182Z,97965.66
2022-11-28T02:53:58.079Z,97965.66
2022-11-28T02:56:28.194Z,97958.88
2022-11-28T02:58:56.947Z,97949.56
2022-11-28T03:01:30.304Z,97941.91
2022-11-28T03:04:27.221Z,97926.69
2022-11-28T03:07:05.553Z,97925.03
2022-11-28T03:09:47.887Z,97916.56
2022-11-28T03:12:27.134Z,97913.16
2022-11-28T03:14:57.958Z,97909.78
2022-11-28T03:17:38.224Z,97894.50
2022-11-28T03:20:19.278Z,97906.41
2022-11-28T03:23:00.961Z,97908.09
2022-11-28T03:25:35.869Z,97916.56
2022-11-28T03:28:11.537Z,97924.16
2022-11-28T03:30:45.564Z,97923.34
2022-11-28T03:33:14.880Z,97896.22
2022-11-28T03:35:50.818Z,97877.59
2022-11-28T03:38:23.859Z,97866.63
2022-11-28T03:40:56.742Z,97849.69
2022-11-28T03:43:34.489Z,97857.31
2022-11-28T03:46:09.528Z,97851.38
2022-11-28T03:48:44.567Z,97859.00
2022-11-28T03:51:20.409Z,97873.38
2022-11-28T03:53:55.763Z,97865.75
2022-11-28T03:56:28.444Z,97869.97
2022-11-28T03:59:02.243Z,97874.22
2022-11-28T04:01:36.530Z,97889.50
2022-11-28T04:04:16.459Z,97861.53
2022-11-28T04:06:55.475Z,97860.72
2022-11-28T04:09:37.830Z,97867.47
2022-11-28T04:12:16.083Z,97864.09
2022-11-28T04:14:51.105Z,97853.06
2022-11-28T04:17:25.379Z,97883.56
2022-11-28T04:19:57.784Z,97890.34
2022-11-28T04:22:32.956Z,97889.50
2022-11-28T04:25:07.647Z,97869.16
2022-11-28T04:27:39.482Z,97908.97
2022-11-28T04:30:11.529Z,97909.00
2022-11-28T04:32:47.824Z,97913.22
2022-11-28T04:35:22.087Z,97890.34
2022-11-28T04:37:54.733Z,97886.97
2022-11-28T04:40:27.308Z,97886.13
2022-11-28T04:43:00.030Z,97914.06
2022-11-28T04:45:33.847Z,97911.50
2022-11-28T04:48:03.966Z,97895.41
2022-11-28T04:50:38.205Z,97913.22
2022-11-28T04:53:14.547Z,97923.38
2022-11-28T04:55:48.843Z,97913.19
2022-11-28T04:58:23.348Z,97928.44
2022-11-28T05:00:55.106Z,97928.47
2022-11-28T05:03:28.619Z,97908.97
2022-11-28T05:05:57.432Z,97917.47
2022-11-28T05:08:27.895Z,97900.53
2022-11-28T05:10:56.447Z,97899.66
2022-11-28T05:13:24.902Z,97910.69
2022-11-28T05:15:53.635Z,97892.03
2022-11-28T05:18:22.223Z,97880.19
2022-11-28T05:20:50.625Z,97881.88
2022-11-28T05:23:19.571Z,97853.06
2022-11-28T05:25:49.784Z,97863.22
2022-11-28T05:28:18.542Z,97841.19
2022-11-28T05:30:57.621Z,97823.44
2022-11-28T05:33:26.415Z,97823.44
2022-11-28T05:35:55.499Z,97842.06
2022-11-28T05:38:24.216Z,97837.81
2022-11-28T05:40:54.221Z,97842.06
2022-11-28T05:43:23.168Z,97843.75
2022-11-28T05:45:52.260Z,97841.22
2022-11-28T05:48:21.177Z,97829.34
2022-11-28T05:50:51.272Z,97822.59
2022-11-28T05:53:22.398Z,97823.44
2022-11-28T05:55:50.883Z,97805.66
2022-11-28T05:58:20.813Z,97785.34
2022-11-28T06:00:49.375Z,97742.16
2022-11-28T06:03:17.685Z,97720.16
2022-11-28T06:05:46.156Z,97715.91
2022-11-28T06:08:14.856Z,97728.63
2022-11-28T06:10:43.257Z,97732.84
2022-11-28T06:13:11.626Z,97781.09
2022-11-28T06:15:45.662Z,97841.22
2022-11-28T06:18:14.118Z,97841.25
2022-11-28T06:20:43.312Z,97819.22
2022-11-28T06:23:11.884Z,97827.69
2022-11-28T06:25:40.596Z,97820.91
2022-11-28T06:28:09.075Z,97837.00
2022-11-28T06:30:38.261Z,97836.13
2022-11-28T06:33:08.295Z,97802.25
2022-11-28T06:35:38.704Z,97829.38
2022-11-28T06:38:12.884Z,97853.06
2022-11-28T06:40:43.488Z,97825.13
2022-11-28T06:43:12.143Z,97820.88
2022-11-28T06:45:41.100Z,97850.53
2022-11-28T06:48:11.394Z,97859.00
2022-11-28T06:50:40.229Z,97872.56
2022-11-28T06:53:09.322Z,97881.91
2022-11-28T06:55:37.986Z,97863.25
2022-11-28T06:58:07.905Z,97840.38
2022-11-28T07:00:36.818Z,97846.31
2022-11-28T07:03:05.585Z,97835.28
2022-11-28T07:05:36.342Z,97869.16
2022-11-28T07:08:05.540Z,97850.53
2022-11-28T07:10:35.142Z,97853.09
2022-11-28T07:13:05.587Z,97809.03
2022-11-28T07:15:34.696Z,97820.91
2022-11-28T07:18:03.254Z,97821.75
2022-11-28T07:20:32.173Z,97836.97
2022-11-28T07:23:02.087Z,97836.16
2022-11-28T07:25:30.864Z,97840.41
2022-11-28T07:28:00.874Z,97841.22
2022-11-28T07:30:29.464Z,97851.41
2022-11-28T07:32:58.159Z,97847.16
2022-11-28T07:35:26.741Z,97837.81
2022-11-28T07:37:56.385Z,97837.81
2022-11-28T07:40:27.190Z,97834.47
2022-11-28T07:42:55.999Z,97844.63
2022-11-28T07:45:41.669Z,97854.78
2022-11-28T07:48:13.624Z,97864.09
2022-11-28T07:50:42.450Z,97868.31
2022-11-28T07:53:11.570Z,97859.84
2022-11-28T07:55:41.567Z,97861.53
2022-11-28T07:58:10.952Z,97851.38
2022-11-28T08:00:39.424Z,97845.47
2022-11-28T08:03:07.910Z,97857.31
2022-11-28T08:05:36.630Z,97846.28
2022-11-28T08:08:05.796Z,97857.31
2022-11-28T08:10:34.623Z,97841.22
2022-11-28T08:13:05.143Z,97845.44
2022-11-28T08:15:34.574Z,97840.38
2022-11-28T08:18:03.856Z,97849.69
2022-11-28T08:20:32.442Z,97832.72
2022-11-28T08:23:01.231Z,97842.03
2022-11-28T08:25:29.838Z,97842.03
2022-11-28T08:27:58.407Z,97842.06
2022-11-28T08:30:29.044Z,97839.53
2022-11-28T08:32:57.944Z,97844.59
2022-11-28T08:35:28.975Z,97845.41
2022-11-28T08:38:01.654Z,97834.41
2022-11-28T08:40:30.900Z,97822.56
2022-11-28T08:43:00.461Z,97838.63
2022-11-28T08:45:31.265Z,97806.47
2022-11-28T08:48:01.876Z,97829.28
2022-11-28T08:50:31.683Z,97836.03
2022-11-28T08:53:07.526Z,97833.50
2022-11-28T08:55:40.478Z,97844.53
2022-11-28T08:58:10.841Z,97836.91
2022-11-28T09:00:43.256Z,97850.47
2022-11-28T09:03:14.875Z,97845.34
2022-11-28T09:05:45.817Z,97836.06
2022-11-28T09:08:15.302Z,97846.22
2022-11-28T09:10:46.309Z,97834.34
2022-11-28T09:13:16.548Z,97837.69
2022-11-28T09:15:51.337Z,97836.03
2022-11-28T09:18:22.629Z,97847.81
2022-11-28T09:20:58.331Z,97843.53
2022-11-28T09:23:27.412Z,97832.50
2022-11-28T09:25:56.198Z,97818.06
2022-11-28T09:28:29.500Z,97812.97
2022-11-28T09:31:15.670Z,97827.28
2022-11-28T09:33:45.039Z,97819.69
2022-11-28T09:36:15.624Z,97789.25
2022-11-28T09:38:45.792Z,97792.59
2022-11-28T09:41:40.545Z,97809.47
2022-11-28T09:44:12.033Z,97816.22
2022-11-28T09:46:45.436Z,97816.22
2022-11-28T09:49:25.898Z,97818.75
2022-11-28T09:51:59.484Z,97799.22
2022-11-28T09:54:39.590Z,97819.47
2022-11-28T09:57:18.051Z,97821.25
2022-11-28T09:59:48.669Z,97821.31
2022-11-28T10:02:29.359Z,97806.81
2022-11-28T10:05:09.801Z,97804.38
2022-11-28T10:07:55.109Z,97811.19
2022-11-28T10:10:33.856Z,97814.56
2022-11-28T10:13:12.169Z,97825.56
2022-11-28T10:15:48.022Z,97820.53
2022-11-28T10:18:29.705Z,97815.41
2022-11-28T10:21:03.313Z,97830.59
2022-11-28T10:23:37.264Z,97827.91
2022-11-28T10:26:08.338Z,97819.34
2022-11-28T10:28:40.377Z,97814.19
2022-11-28T10:31:15.067Z,97816.72
2022-11-28T10:33:50.789Z,97817.41
2022-11-28T10:36:27.946Z,97814.75
2022-11-28T10:38:57.423Z,97799.56
2022-11-28T10:41:33.050Z,97811.53
2022-11-28T10:44:08.230Z,97806.50
2022-11-28T10:46:53.358Z,97806.44
2022-11-28T10:49:35.456Z,97802.19
2022-11-28T10:52:13.488Z,97817.44
2022-11-28T10:54:56.789Z,97812.25
2022-11-28T10:57:31.717Z,97818.06
2022-11-28T11:00:13.818Z,97812.91
2022-11-28T11:02:47.510Z,97807.69
2022-11-28T11:05:21.168Z,97813.63
2022-11-28T11:07:54.103Z,97793.47
2022-11-28T11:10:27.144Z,97815.56
2022-11-28T11:12:56.163Z,97810.44
2022-11-28T11:15:32.103Z,97829.06
2022-11-28T11:18:05.556Z,97813.78
2022-11-28T11:20:41.504Z,97811.09
2022-11-28T11:23:17.942Z,97804.91
2022-11-28T11:25:53.553Z,97799.00
2022-11-28T11:28:36.572Z,97789.63
2022-11-28T11:31:08.186Z,97808.31
2022-11-28T11:33:40.268Z,97795.44
2022-11-28T11:36:27.416Z,97797.28
2022-11-28T11:39:08.927Z,97813.16
2022-11-28T11:41:38.210Z,97793.41
2022-11-28T11:44:30.637Z,97786.03
2022-11-28T11:47:02.182Z,97803.91
2022-11-28T11:49:32.856Z,97795.16
2022-11-28T11:52:06.822Z,97798.66
2022-11-28T11:54:35.997Z,97798.56
2022-11-28T11:57:31.279Z,97797.72
2022-11-28T11:59:57.760Z,97803.66
2022-11-28T12:02:33.532Z,97808.50
2022-11-28T12:05:06.374Z,97799.06
2022-11-28T12:07:51.405Z,97799.72
2022-11-28T12:10:24.088Z,97804.19
2022-11-28T12:12:54.964Z,97797.50
2022-11-28T12:15:33.508Z,97799.72
2022-11-28T12:18:19.895Z,97796.59
2022-11-28T12:21:09.885Z,97791.38
2022-11-28T12:24:08.521Z,97789.50
2022-11-28T12:26:46.559Z,97775.19
2022-11-28T12:29:31.964Z,97761.72
2022-11-28T12:32:13.184Z,97755.09
2022-11-28T12:34:56.355Z,97768.84
2022-11-28T12:38:02.921Z,97773.88
2022-11-28T12:40:37.087Z,97766.13
2022-11-28T12:43:25.665Z,97762.84
2022-11-28T12:46:01.234Z,97761.97
2022-11-28T12:48:52.884Z,97762.22
2022-11-28T12:51:38.409Z,97771.47
2022-11-28T12:57:41.741Z,97753.59
2022-11-28T13:00:15.970Z,97756.94
2022-11-28T13:02:58.078Z,97753.66
2022-11-28T13:05:34.022Z,97757.94
2022-11-28T13:08:48.838Z,97756.41
2022-11-28T13:11:31.699Z,97757.34
2022-11-28T13:14:11.309Z,97757.97
2022-11-28T13:16:48.431Z,97759.59
2022-11-28T13:19:32.020Z,97765.75
2022-11-28T13:22:09.177Z,97764.88
2022-11-28T13:24:49.186Z,97752.34
2022-11-28T13:27:32.686Z,97765.88
2022-11-28T13:30:21.945Z,97767.63
2022-11-28T13:32:58.008Z,97761.72
2022-11-28T13:35:34.207Z,97772.00
2022-11-28T13:41:05.446Z,97773.63
2022-11-28T13:43:49.950Z,97775.31
2022-11-28T13:46:21.007Z,97779.75
2022-11-28T13:49:20.635Z,97770.41
2022-11-28T13:51:50.120Z,97777.22
2022-11-28T13:54:46.430Z,97781.34
2022-11-28T13:57:28.927Z,97783.16
2022-11-28T14:00:22.730Z,97778.97
2022-11-28T14:02:58.879Z,97767.16
2022-11-28T14:05:36.560Z,97774.84
2022-11-28T14:08:08.785Z,97763.78
2022-11-28T14:10:57.158Z,97765.47
2022-11-28T14:13:48.784Z,97767.16
2022-11-28T14:16:30.651Z,97765.66
2022-11-28T14:19:21.167Z,97769.00
2022-11-28T14:22:06.703Z,97768.97
2022-11-28T14:24:55.246Z,97764.72
2022-11-28T14:27:28.093Z,97760.53
2022-11-28T14:29:59.426Z,97763.97
2022-11-28T14:32:41.419Z,97758.00
2022-11-28T14:35:22.843Z,97771.59
2022-11-28T14:37:58.177Z,97780.94
2022-11-28T14:41:06.760Z,97787.72
2022-11-28T14:43:40.173Z,97799.63
2022-11-28T14:46:32.807Z,97783.53
2022-11-28T14:49:22.588Z,97789.38
2022-11-28T14:55:42.812Z,97791.13
2022-11-28T14:58:18.788Z,97788.63
2022-11-28T15:00:54.824Z,97795.47
2022-11-28T15:03:38.735Z,97787.00
2022-11-28T15:06:23.563Z,97787.03
2022-11-28T15:09:06.021Z,97768.41
2022-11-28T15:11:48.957Z,97786.16
2022-11-28T15:14:27.272Z,97793.03
2022-11-28T15:17:07.907Z,97799.00
2022-11-28T15:19:41.821Z,97786.22
2022-11-28T15:22:33.890Z,97789.66
2022-11-28T15:25:04.782Z,97781.19
2022-11-28T15:27:33.531Z,97780.34
2022-11-28T15:30:05.190Z,97788.88
2022-11-28T15:32:34.972Z,97798.25
2022-11-28T15:35:12.602Z,97790.59
2022-11-28T15:37:47.408Z,97782.09
2022-11-28T15:40:22.511Z,97770.28
2022-11-28T15:42:52.067Z,97773.63
2022-11-28T15:45:29.037Z,97777.03
2022-11-28T15:48:00.065Z,97779.63
2022-11-28T15:50:32.749Z,97784.75
2022-11-28T15:53:03.617Z,97777.97
2022-11-28T15:55:36.163Z,97777.97
2022-11-28T15:58:21.175Z,97788.13
2022-11-28T16:01:01.346Z,97780.56
2022-11-28T16:03:34.703Z,97791.59
2022-11-28T16:06:06.650Z,97778.88
2022-11-28T16:08:40.760Z,97764.50
2022-11-28T16:11:18.151Z,97767.00
2022-11-28T16:13:47.587Z,97774.66
2022-11-28T16:16:20.565Z,97773.03
2022-11-28T16:18:57.425Z,97778.13
2022-11-28T16:21:29.225Z,97778.97
2022-11-28T16:24:01.101Z,97788.31
2022-11-28T16:26:35.709Z,97785.78
2022-11-28T16:29:17.190Z,97790.88
2022-11-28T16:31:48.046Z,97791.75
2022-11-28T16:34:18.748Z,97785.84
2022-11-28T16:36:50.392Z,97795.13
2022-11-28T16:39:20.131Z,97766.38
2022-11-28T16:41:55.070Z,97790.09
2022-11-28T16:44:26.441Z,97786.66
2022-11-28T16:46:56.810Z,97768.06
2022-11-28T16:49:36.576Z,97779.09
2022-11-28T16:52:57.863Z,97786.72
2022-11-28T16:55:46.904Z,97784.19
2022-11-28T16:58:22.960Z,97790.16
2022-11-28T17:01:01.881Z,97782.50
2022-11-28T17:03:48.681Z,97788.41
2022-11-28T17:06:23.322Z,97775.69
2022-11-28T17:08:52.001Z,97768.97
2022-11-28T17:11:23.490Z,97787.59
2022-11-28T17:13:57.221Z,97785.06
2022-11-28T17:16:29.751Z,97770.75
2022-11-28T17:18:58.306Z,97785.03
2022-11-28T17:21:33.605Z,97773.25
2022-11-28T17:24:04.034Z,97784.19
2022-11-28T17:26:32.826Z,97793.53
2022-11-28T17:29:04.065Z,97781.69
2022-11-28T17:31:32.593Z,97789.34
2022-11-28T17:34:01.179Z,97779.22
2022-11-28T17:36:30.627Z,97796.13
2022-11-28T17:39:05.035Z,97772.44
2022-11-28T17:41:34.275Z,97787.63
2022-11-28T17:44:04.697Z,97784.25
2022-11-28T17:46:33.476Z,97786.84
2022-11-28T17:49:03.700Z,97769.88
2022-11-28T17:51:33.870Z,97801.22
2022-11-28T17:54:03.061Z,97787.66
2022-11-28T17:56:32.882Z,97772.41
2022-11-28T17:59:02.773Z,97785.09
2022-11-28T18:01:33.270Z,97780.88
2022-11-28T18:04:02.212Z,97764.00
2022-11-28T18:06:30.879Z,97788.50
2022-11-28T18:09:08.633Z,97781.63
2022-11-28T18:11:41.373Z,97779.94
2022-11-28T18:14:10.787Z,97780.88
2022-11-28T18:16:44.091Z,97789.34
2022-11-28T18:19:12.917Z,97773.28
2022-11-28T18:21:41.564Z,97774.91
2022-11-28T18:24:10.516Z,97776.63
2022-11-28T18:26:38.744Z,97779.16
2022-11-28T18:29:08.869Z,97781.75
2022-11-28T18:31:48.223Z,97775.78
2022-11-28T18:34:17.087Z,97780.03
2022-11-28T18:36:46.497Z,97784.28
2022-11-28T18:39:17.483Z,97786.81
2022-11-28T18:41:45.781Z,97762.25
2022-11-28T18:44:14.883Z,97774.16
2022-11-28T18:46:46.234Z,97780.06
2022-11-28T18:49:17.012Z,97780.91
2022-11-28T18:51:45.501Z,97752.16
2022-11-28T18:54:20.609Z,97785.13
2022-11-28T18:56:49.918Z,97787.69
2022-11-28T18:59:18.573Z,97780.09
2022-11-28T19:01:48.975Z,97770.78
2022-11-28T19:04:18.410Z,97777.56
2022-11-28T19:06:48.760Z,97773.34
2022-11-28T19:09:19.225Z,97781.81
2022-11-28T19:11:48.914Z,97784.34
2022-11-28T19:14:22.248Z,97780.13
2022-11-28T19:16:55.191Z,97779.25
2022-11-28T19:19:23.776Z,97791.09
2022-11-28T19:21:54.413Z,97782.66
2022-11-28T19:24:23.252Z,97775.88
2022-11-28T19:26:52.611Z,97786.88
2022-11-28T19:29:21.138Z,97774.19
2022-11-28T19:31:51.178Z,97782.66
2022-11-28T19:34:24.023Z,97775.03
2022-11-28T19:36:52.794Z,97801.25
2022-11-28T19:39:23.615Z,97790.22
2022-11-28T19:41:54.555Z,97786.00
2022-11-28T19:44:25.235Z,97785.16
2022-11-28T19:46:54.627Z,97792.75
2022-11-28T19:49:26.392Z,97779.25
2022-11-28T19:51:56.682Z,97791.91
2022-11-28T19:54:26.899Z,97798.69
2022-11-28T19:56:58.895Z,97801.22
2022-11-28T19:59:28.916Z,97804.59
2022-11-28T20:01:57.931Z,97810.56
2022-11-28T20:04:28.344Z,97810.53
2022-11-28T20:06:57.628Z,97807.13
2022-11-28T20:09:26.242Z,97806.31
2022-11-28T20:11:54.928Z,97805.47
2022-11-28T20:14:23.240Z,97809.66
2022-11-28T20:16:52.388Z,97813.91
2022-11-28T20:19:21.011Z,97829.16
2022-11-28T20:21:51.451Z,97824.94
2022-11-28T20:24:20.033Z,97823.28
2022-11-28T20:26:50.596Z,97832.59
2022-11-28T20:29:21.012Z,97830.94
2022-11-28T20:31:50.541Z,97837.69
2022-11-28T20:34:20.109Z,97821.56
2022-11-28T20:36:55.258Z,97819.91
2022-11-28T20:39:25.601Z,97828.38
2022-11-28T20:41:54.376Z,97834.31
2022-11-28T20:44:23.099Z,97841.09
2022-11-28T20:46:51.540Z,97836.00
2022-11-28T20:49:20.882Z,97835.16
2022-11-28T20:51:50.901Z,97845.34
2022-11-28T20:54:21.580Z,97844.50
2022-11-28T20:57:20.793Z,97847.91
2022-11-28T20:59:40.580Z,97857.22
2022-11-28T21:02:13.787Z,97825.03
2022-11-28T21:04:44.760Z,97836.03
2022-11-28T21:07:13.532Z,97819.09
2022-11-28T21:09:43.638Z,97838.53
2022-11-28T21:12:20.694Z,97833.47
2022-11-28T21:14:49.464Z,97833.47
2022-11-28T21:17:18.124Z,97841.13
2022-11-28T21:19:47.117Z,97827.56
2022-11-28T21:22:15.522Z,97845.38
2022-11-28T21:24:49.815Z,97848.78
2022-11-28T21:27:18.861Z,97857.25
2022-11-28T21:29:47.816Z,97846.25
2022-11-28T21:32:17.979Z,97845.41
2022-11-28T21:34:46.744Z,97851.31
2022-11-28T21:37:16.485Z,97851.31
2022-11-28T21:39:46.851Z,97842.84
2022-11-28T21:42:20.576Z,97845.38
2022-11-28T21:44:49.722Z,97851.34
2022-11-28T21:47:18.320Z,97846.25
2022-11-28T21:49:47.097Z,97838.63
2022-11-28T21:52:17.138Z,97858.97
2022-11-28T21:54:47.191Z,97853.03
2022-11-28T21:57:15.770Z,97847.94
2022-11-28T21:59:44.912Z,97836.94
2022-11-28T22:02:16.155Z,97828.47
2022-11-28T22:04:46.987Z,97845.41
2022-11-28T22:07:17.895Z,97851.31
2022-11-28T22:09:49.225Z,97838.63
2022-11-28T22:12:18.623Z,97834.38
2022-11-28T22:14:47.667Z,97833.53
2022-11-28T22:17:16.219Z,97846.25
2022-11-28T22:19:47.265Z,97840.31
2022-11-28T22:22:17.660Z,97845.38
2022-11-28T22:24:48.109Z,97832.69
2022-11-28T22:27:17.019Z,97849.63
2022-11-28T22:29:48.765Z,97847.94
2022-11-28T22:32:18.602Z,97848.78
2022-11-28T22:34:48.567Z,97853.88
2022-11-28T22:37:21.662Z,97843.72
2022-11-28T22:39:52.305Z,97848.78
2022-11-28T22:42:20.553Z,97853.88
2022-11-28T22:44:49.037Z,97854.75
2022-11-28T22:47:17.600Z,97848.78
2022-11-28T22:49:46.163Z,97836.09
2022-11-28T22:52:17.249Z,97831.84
2022-11-28T22:54:46.339Z,97844.56
2022-11-28T22:57:16.441Z,97832.72
2022-11-28T22:59:45.500Z,97847.94
2022-11-28T23:02:14.130Z,97847.09
2022-11-28T23:04:42.787Z,97849.66
2022-11-28T23:07:11.786Z,97845.41
2022-11-28T23:09:40.548Z,97834.41
2022-11-28T23:12:09.170Z,97840.31
2022-11-28T23:14:39.591Z,97840.31
2022-11-28T23:17:08.069Z,97834.38
2022-11-28T23:19:37.483Z,97833.56
2022-11-28T23:22:05.776Z,97830.16
2022-11-28T23:24:34.433Z,97831.00
2022-11-28T23:27:03.150Z,97838.63
2022-11-28T23:29:31.909Z,97835.25
2022-11-28T23:32:02.605Z,97833.56
2022-11-28T23:34:31.050Z,97834.41
2022-11-28T23:36:59.745Z,97836.13
2022-11-28T23:39:30.390Z,97836.94
2022-11-28T23:41:59.386Z,97833.56
2022-11-28T23:44:27.973Z,97827.63
2022-11-28T23:46:57.124Z,97836.97
2022-11-28T23:49:27.711Z,97825.06
2022-11-28T23:51:57.535Z,97814.06
2022-11-28T23:54:26.301Z,97819.97
2022-11-28T23:56:55.136Z,97817.44
2022-11-28T23:59:23.786Z,97829.31
